ROMMA est une association bénévole à but non lucratif. Votre soutien est indispensable : ADHERER à ROMMA ou FAIRE un DON

Voiron - (38, Isère)

Voironnais (300 m)   Longitude: 05° 35' E   Latitude: 45° 23' N Station partenaire n°109
 

Détail journalier du     <<     >>

Température Precipitation Humidité Pression Vent Dir Rafale Dir. rafale Ensol.
Heure (°C) (mm) (%) (hPa) (km/h) (km/h) (min)
01:00 15.407110175ENE16ENE0
02:00 13.707910161NE5NNE0
03:00 13.907710172NNO5NNO0
04:00 14.107510162NNO8E0
05:00 14.407410163N15NE0
06:00 13.907610166ENE19ENE0
07:00 13.407910166NE19NE0
08:00 12.908310172SSE6NO0
09:00 13.1083101705O0
10:00 13.608210171SE5SSO0
11:00 13.908310182SE6S0
12:00 14.907910183ENE15E0
13:00 16.806810186NE19ENE30
14:00 16.806510179N21ENE30
15:00 17.506510176NE19ENE0
16:00 17.506610178NNE23N30
17:00 18.506110178N21N60
18:00 17.206610176ENE18E0
19:00 17.006710174NE13E0
20:00 16.407110185NE16NE0
21:00 15.8073101810N21NNO0
22:00 15.807210196NE18NNE0
23:00 15.507310196NNE19N0
minuit 14.707810192NNE6NO0

Graphique du 05-10-2019

 

Serveur OMMA